Time;durP1;ratioP1;P1;durP2;ratioP2;P2;SDS_P1;SDS_P2;PMS_P1;PMS_P2;Temp;Humidity;BMP_temperature;BMP_pressure;BME280_temperature;BME280_humidity;BME280_pressure;Samples;Min_cycle;Max_cycle;Signal;HPM_P1;HPM_P2
2021/09/23 00:02:14;;;;;;;3.38;2.55;;;;;;;11.62;85.32;101325.91;5048156;28;20029;-75
2021/09/23 00:04:40;;;;;;;3.72;2.80;;;;;;;11.62;84.94;101322.44;5046405;28;20044;-75
2021/09/23 00:07:05;;;;;;;4.00;2.75;;;;;;;11.67;84.83;101328.97;5048395;28;20043;-75
2021/09/23 00:09:31;;;;;;;4.65;3.15;;;;;;;11.82;82.82;101329.41;5048438;28;20037;-75
2021/09/23 00:11:57;;;;;;;3.85;2.90;;;;;;;11.82;83.58;101323.25;5047908;28;20041;-75
2021/09/23 00:14:22;;;;;;;5.90;3.13;;;;;;;11.84;82.90;101337.22;5047306;28;20036;-75
2021/09/23 00:16:48;;;;;;;3.47;2.63;;;;;;;11.81;83.96;101332.19;5048130;28;20037;-75
2021/09/23 00:19:13;;;;;;;4.43;3.25;;;;;;;11.81;83.66;101337.50;5047684;28;20029;-75
2021/09/23 00:21:39;;;;;;;3.55;2.40;;;;;;;11.81;82.87;101334.84;5048180;28;20037;-75
2021/09/23 00:24:04;;;;;;;3.30;2.50;;;;;;;11.83;82.41;101338.19;5050376;28;20048;-75
2021/09/23 00:26:29;;;;;;;4.53;3.08;;;;;;;11.80;83.24;101334.03;5051567;28;20119;-75
2021/09/23 00:28:55;;;;;;;3.65;2.95;;;;;;;11.76;83.55;101329.13;5051864;28;20489;-75
2021/09/23 00:31:21;;;;;;;4.85;3.25;;;;;;;11.76;83.19;101335.25;5051913;28;20060;-75
2021/09/23 00:33:46;;;;;;;5.68;3.20;;;;;;;11.83;82.22;101330.25;5052599;28;20032;-75
2021/09/23 00:36:11;;;;;;;4.03;3.00;;;;;;;11.76;82.63;101323.84;5051783;28;20041;-75
2021/09/23 00:38:37;;;;;;;5.38;3.70;;;;;;;11.79;82.63;101334.16;5051624;28;20111;-75
2021/09/23 00:41:02;;;;;;;6.82;3.30;;;;;;;11.80;82.30;101328.72;5050274;28;20493;-75
2021/09/23 00:43:27;;;;;;;6.60;3.50;;;;;;;11.80;82.22;101323.41;5052237;28;20140;-75
2021/09/23 00:45:53;;;;;;;4.47;3.17;;;;;;;11.75;82.83;101315.06;5049743;28;20067;-75
2021/09/23 00:48:18;;;;;;;5.55;3.42;;;;;;;11.80;82.05;101307.53;5051157;28;20033;-75
2021/09/23 00:50:44;;;;;;;5.90;3.35;;;;;;;11.76;82.42;101306.13;5051549;28;20532;-76
2021/09/23 00:53:09;;;;;;;3.72;2.90;;;;;;;11.74;82.10;101317.84;5051689;28;20056;-75
2021/09/23 00:55:35;;;;;;;5.00;2.90;;;;;;;11.71;82.42;101312.81;5057582;28;20037;-75
2021/09/23 00:58:00;;;;;;;4.18;2.72;;;;;;;11.66;83.72;101316.72;5049727;28;20138;-76
2021/09/23 01:00:26;;;;;;;3.67;3.05;;;;;;;11.68;82.84;101319.25;5051233;28;20214;-75
2021/09/23 01:02:51;;;;;;;4.72;3.38;;;;;;;11.69;82.51;101316.44;5051455;28;20071;-75
2021/09/23 01:05:17;;;;;;;4.57;2.90;;;;;;;11.64;83.78;101313.38;5050798;28;20041;-75
2021/09/23 01:07:48;;;;;;;4.35;3.00;;;;;;;11.70;82.69;101306.66;5051164;28;20379;-75
2021/09/23 01:10:15;;;;;;;3.60;2.88;;;;;;;11.67;83.64;101305.13;5051238;28;20033;-75
2021/09/23 01:12:41;;;;;;;4.10;3.05;;;;;;;11.63;84.11;101298.47;5047777;28;20114;-75
2021/09/23 01:15:08;;;;;;;5.13;2.85;;;;;;;11.56;83.53;101293.84;5050311;28;20055;-75
2021/09/23 01:17:34;;;;;;;4.18;2.90;;;;;;;11.49;83.01;101293.59;5050642;28;20559;-75
2021/09/23 01:19:59;;;;;;;4.22;2.60;;;;;;;11.43;83.50;101294.97;5050646;28;20124;-75
2021/09/23 01:22:25;;;;;;;3.45;2.65;;;;;;;11.38;84.01;101297.19;5050019;28;20544;-75
2021/09/23 01:24:50;;;;;;;3.78;2.53;;;;;;;11.38;82.69;101291.06;5051027;28;20202;-75
2021/09/23 01:27:16;;;;;;;3.83;2.72;;;;;;;11.29;83.88;101291.88;5050855;28;20037;-75
2021/09/23 01:29:42;;;;;;;4.22;3.30;;;;;;;11.19;83.51;101298.00;5050537;28;20052;-75
2021/09/23 01:32:09;;;;;;;3.85;3.22;;;;;;;11.10;84.06;101285.56;5049984;28;20072;-75
2021/09/23 01:34:35;;;;;;;4.25;2.83;;;;;;;11.07;84.48;101283.22;5051041;28;20497;-75
2021/09/23 01:37:00;;;;;;;3.60;2.78;;;;;;;11.08;83.02;101276.09;5051030;28;20044;-75
2021/09/23 01:39:27;;;;;;;5.18;3.53;;;;;;;11.07;82.53;101271.81;5050707;28;20394;-75
2021/09/23 01:41:53;;;;;;;4.65;3.40;;;;;;;10.93;83.82;101273.00;5048901;28;20424;-75
2021/09/23 01:44:19;;;;;;;5.90;3.85;;;;;;;10.79;84.70;101263.66;5050090;28;20033;-75
2021/09/23 01:46:44;;;;;;;5.78;4.40;;;;;;;10.69;85.61;101263.63;5049485;28;20040;-75
2021/09/23 01:49:10;;;;;;;4.47;3.88;;;;;;;10.69;84.54;101265.44;5050900;28;20092;-75
2021/09/23 01:51:35;;;;;;;5.55;3.63;;;;;;;10.61;86.21;101260.81;5050427;28;20036;-75
2021/09/23 01:54:01;;;;;;;7.75;4.20;;;;;;;10.64;84.38;101255.25;5054918;28;20043;-75
2021/09/23 01:56:26;;;;;;;5.35;3.70;;;;;;;10.61;84.96;101250.25;5054084;28;20454;-75
2021/09/23 01:58:52;;;;;;;5.07;3.30;;;;;;;10.57;86.35;101247.00;5049538;28;20033;-75
2021/09/23 02:01:17;;;;;;;5.72;4.00;;;;;;;10.49;87.17;101249.50;5050349;28;20049;-75
2021/09/23 02:03:42;;;;;;;5.72;4.00;;;;;;;10.47;87.85;101255.91;5050300;28;20087;-75
2021/09/23 02:06:08;;;;;;;5.80;3.83;;;;;;;10.41;87.26;101247.50;5049647;28;20498;-75
2021/09/23 02:08:33;;;;;;;5.15;3.72;;;;;;;10.34;87.79;101246.34;5048909;28;20048;-76
2021/09/23 02:10:59;;;;;;;4.45;3.25;;;;;;;10.30;88.30;101252.91;5050319;28;20493;-75
2021/09/23 02:13:24;;;;;;;4.80;3.03;;;;;;;10.34;87.42;101248.16;5049728;28;20043;-75
2021/09/23 02:15:49;;;;;;;3.67;2.65;;;;;;;10.44;87.71;101235.84;5048477;28;20156;-75
2021/09/23 02:18:15;;;;;;;4.03;2.88;;;;;;;10.50;88.69;101237.94;5048708;28;20057;-75
2021/09/23 02:20:41;;;;;;;4.10;3.17;;;;;;;10.53;89.24;101237.66;5049065;28;20040;-75
2021/09/23 02:23:06;;;;;;;4.05;3.28;;;;;;;10.55;88.64;101230.44;5050186;28;20033;-75
2021/09/23 02:25:31;;;;;;;4.90;2.80;;;;;;;10.56;88.65;101223.38;5052418;28;20039;-76
2021/09/23 02:27:56;;;;;;;3.28;2.45;;;;;;;10.63;88.13;101227.16;5052158;28;20044;-75
2021/09/23 02:30:22;;;;;;;3.80;3.10;;;;;;;10.69;87.46;101231.88;5046801;28;20293;-75
2021/09/23 02:32:47;;;;;;;3.05;2.33;;;;;;;10.66;86.92;101226.88;5050517;28;20036;-75
2021/09/23 02:35:12;;;;;;;3.70;2.60;;;;;;;10.61;87.23;101223.78;5049708;28;20032;-75
2021/09/23 02:37:38;;;;;;;3.28;2.67;;;;;;;10.61;87.47;101221.97;5048692;28;20037;-75
2021/09/23 02:40:04;;;;;;;3.70;2.95;;;;;;;10.59;86.89;101218.63;5049417;28;20414;-75
2021/09/23 02:42:30;;;;;;;4.18;2.65;;;;;;;10.56;86.70;101212.78;5049091;28;20081;-75
2021/09/23 02:44:55;;;;;;;4.00;2.35;;;;;;;10.55;86.51;101211.09;5049081;28;20320;-75
2021/09/23 02:47:22;;;;;;;2.72;2.42;;;;;;;10.50;87.33;101213.31;5047900;28;20029;-75
2021/09/23 02:49:49;;;;;;;3.25;2.30;;;;;;;10.50;87.43;101214.16;5049552;28;20048;-75
2021/09/23 02:52:15;;;;;;;4.90;2.70;;;;;;;10.54;87.49;101214.72;5043527;28;20040;-75
2021/09/23 02:54:40;;;;;;;3.75;2.67;;;;;;;10.51;86.32;101207.91;5057319;28;20033;-75
2021/09/23 02:57:05;;;;;;;3.33;2.70;;;;;;;10.41;85.14;101199.91;5049214;28;20400;-75
2021/09/23 02:59:31;;;;;;;4.47;3.05;;;;;;;10.33;86.03;101197.09;5049261;28;20036;-75
2021/09/23 03:01:56;;;;;;;4.50;2.97;;;;;;;10.26;86.42;101193.28;5049188;28;20044;-75
2021/09/23 03:04:21;;;;;;;4.85;3.25;;;;;;;10.22;86.80;101197.16;5048294;28;20040;-75
2021/09/23 03:06:47;;;;;;;3.95;2.95;;;;;;;10.24;86.89;101184.66;5046148;28;20098;-75
2021/09/23 03:09:12;;;;;;;4.88;3.20;;;;;;;10.24;86.51;101182.00;5049538;28;20029;-75
2021/09/23 03:11:38;;;;;;;3.42;2.83;;;;;;;10.23;86.11;101177.72;5048652;28;20081;-75
2021/09/23 03:14:03;;;;;;;4.30;2.97;;;;;;;10.19;86.93;101173.66;5053009;28;20040;-75
2021/09/23 03:16:28;;;;;;;4.82;3.30;;;;;;;10.21;85.15;101169.06;5052272;28;20041;-75
2021/09/23 03:18:54;;;;;;;6.72;3.92;;;;;;;10.12;85.25;101154.03;5048356;28;20429;-75
2021/09/23 03:21:19;;;;;;;5.55;3.88;;;;;;;10.02;85.80;101155.78;5048468;28;20029;-75
2021/09/23 03:23:45;;;;;;;5.50;3.42;;;;;;;9.97;86.52;101148.25;5048174;28;20064;-75
2021/09/23 03:26:11;;;;;;;5.68;3.53;;;;;;;9.93;87.36;101139.75;5055673;28;20127;-76
2021/09/23 03:28:37;;;;;;;5.50;4.22;;;;;;;9.84;86.76;101134.44;5048637;28;20144;-75
2021/09/23 03:31:02;;;;;;;5.78;4.07;;;;;;;9.74;87.27;101132.56;5052955;28;20032;-75
2021/09/23 03:33:27;;;;;;;5.50;4.10;;;;;;;9.74;87.73;101140.50;5067184;28;20032;-75
2021/09/23 03:35:53;;;;;;;5.07;4.13;;;;;;;9.71;88.60;101135.47;5049918;28;20397;-75
2021/09/23 03:38:19;;;;;;;7.07;4.30;;;;;;;9.68;88.43;101134.94;5047997;28;20057;-75
2021/09/23 03:40:45;;;;;;;5.60;4.50;;;;;;;9.63;87.41;101131.81;5047475;28;20505;-75
2021/09/23 03:43:11;;;;;;;5.05;4.22;;;;;;;9.53;86.36;101124.69;5048212;28;20116;-75
2021/09/23 03:45:37;;;;;;;7.47;4.07;;;;;;;9.45;86.53;101119.22;5048355;28;20037;-75
2021/09/23 03:48:03;;;;;;;5.88;4.15;;;;;;;9.39;87.70;101103.91;5047937;28;20029;-75
2021/09/23 03:50:28;;;;;;;5.55;4.70;;;;;;;9.35;90.31;101107.78;5046730;28;20097;-75
2021/09/23 03:52:54;;;;;;;6.00;4.32;;;;;;;9.34;89.89;101106.94;5044518;28;20037;-75
2021/09/23 03:55:19;;;;;;;5.65;4.30;;;;;;;9.36;89.32;101112.91;5055913;28;20087;-75
2021/09/23 03:57:45;;;;;;;5.20;4.22;;;;;;;9.38;89.31;101106.69;5048196;28;20041;-75
2021/09/23 04:00:11;;;;;;;6.35;4.20;;;;;;;9.40;89.10;101102.94;5046309;28;20131;-75
2021/09/23 04:02:36;;;;;;;5.00;4.32;;;;;;;9.34;88.78;101109.59;5040771;28;20030;-75
2021/09/23 04:05:02;;;;;;;5.03;4.30;;;;;;;9.30;88.37;101100.25;5052406;28;20097;-75
2021/09/23 04:07:28;;;;;;;6.18;4.22;;;;;;;9.27;89.49;101103.16;5047916;28;20056;-75
2021/09/23 04:09:54;;;;;;;6.40;4.70;;;;;;;9.20;88.20;101099.34;5048894;28;20045;-75
2021/09/23 04:12:19;;;;;;;5.43;4.38;;;;;;;9.20;89.21;101098.50;5047750;28;20383;-75
2021/09/23 04:14:44;;;;;;;6.45;4.15;;;;;;;9.26;89.39;101095.34;5048013;28;20121;-75
2021/09/23 04:17:10;;;;;;;5.47;4.18;;;;;;;9.39;89.73;101096.00;5049445;28;20099;-75
2021/09/23 04:19:35;;;;;;;4.60;3.88;;;;;;;9.38;88.67;101083.75;5047825;28;20033;-76
2021/09/23 04:22:01;;;;;;;5.88;4.38;;;;;;;9.32;88.70;101087.75;5047701;28;20064;-75
2021/09/23 04:24:26;;;;;;;5.65;4.25;;;;;;;9.37;89.68;101084.72;5046839;28;20095;-75
2021/09/23 04:26:51;;;;;;;5.18;4.00;;;;;;;9.41;89.26;101077.38;5046793;28;20059;-76
2021/09/23 04:29:17;;;;;;;5.10;4.07;;;;;;;9.36;88.03;101072.47;5048059;28;20037;-75
2021/09/23 04:31:42;;;;;;;5.18;3.97;;;;;;;9.30;88.69;101058.00;5048268;28;20659;-76
2021/09/23 04:34:08;;;;;;;5.60;4.40;;;;;;;9.31;87.06;101049.13;5047756;28;20036;-75
2021/09/23 04:36:33;;;;;;;5.88;4.28;;;;;;;9.29;86.83;101051.03;5048283;28;20044;-75
2021/09/23 04:38:58;;;;;;;6.43;4.72;;;;;;;9.26;87.12;101051.31;5047902;28;20532;-75
2021/09/23 04:41:24;;;;;;;5.63;3.95;;;;;;;9.18;87.17;101039.75;5048122;28;20032;-75
2021/09/23 04:43:49;;;;;;;6.32;4.18;;;;;;;9.14;89.51;101047.09;5047749;28;20065;-75
2021/09/23 04:46:21;;;;;;;6.93;4.50;;;;;;;9.08;89.93;101045.81;5047137;28;20069;-75
2021/09/23 04:48:51;;;;;;;6.93;4.90;;;;;;;9.00;89.42;101039.50;5047434;28;20033;-75
2021/09/23 04:51:18;;;;;;;6.07;4.70;;;;;;;8.90;89.80;101044.72;5046258;28;20538;-75
2021/09/23 04:53:43;;;;;;;6.82;4.60;;;;;;;8.85;90.14;101050.38;5049243;28;20040;-75
2021/09/23 04:56:09;;;;;;;6.72;4.40;;;;;;;8.79;90.48;101044.75;5052625;28;20021;-75
2021/09/23 04:58:34;;;;;;;5.43;4.32;;;;;;;8.75;90.89;101049.47;5047935;28;20102;-75
2021/09/23 05:00:59;;;;;;;8.10;4.90;;;;;;;8.74;90.20;101049.59;5047477;28;20037;-75
2021/09/23 05:03:25;;;;;;;6.43;4.47;;;;;;;8.69;90.57;101050.78;5048153;28;20033;-75
2021/09/23 05:05:50;;;;;;;5.47;4.35;;;;;;;8.67;89.82;101059.78;5046379;28;20116;-75
2021/09/23 05:08:15;;;;;;;6.88;4.38;;;;;;;8.67;91.22;101060.63;5047627;28;20036;-75
2021/09/23 05:10:41;;;;;;;5.85;4.30;;;;;;;8.64;90.70;101065.31;5051075;28;20033;-75
2021/09/23 05:13:06;;;;;;;6.80;4.63;;;;;;;8.63;91.51;101061.84;5051440;28;20563;-75
2021/09/23 05:15:31;;;;;;;6.20;4.30;;;;;;;8.63;91.61;101064.50;5050171;28;20522;-75
2021/09/23 05:17:57;;;;;;;7.03;4.50;;;;;;;8.66;91.62;101053.69;5059388;28;20040;-75
2021/09/23 05:20:22;;;;;;;6.90;4.72;;;;;;;8.70;91.58;101049.84;5049110;28;20402;-75
2021/09/23 05:22:48;;;;;;;8.35;4.38;;;;;;;8.96;90.07;101054.72;5050272;28;20029;-75
2021/09/23 05:25:13;;;;;;;5.03;4.10;;;;;;;9.02;91.30;101051.59;5049361;28;20061;-75
2021/09/23 05:27:39;;;;;;;7.03;4.30;;;;;;;9.07;91.57;101059.94;5050748;28;20383;-75
2021/09/23 05:30:08;;;;;;;5.35;4.50;;;;;;;9.15;90.57;101054.03;5043667;28;20039;-75
2021/09/23 05:32:33;;;;;;;6.93;4.50;;;;;;;9.14;90.87;101058.47;5050753;28;20099;-75
2021/09/23 05:34:59;;;;;;;5.72;4.45;;;;;;;9.16;90.41;101054.88;5049918;28;20033;-75
2021/09/23 05:37:24;;;;;;;6.70;5.18;;;;;;;9.23;90.10;101058.66;5049497;28;20218;-75
2021/09/23 05:39:49;;;;;;;7.70;5.68;;;;;;;9.28;90.07;101057.31;5050988;28;20394;-75
2021/09/23 05:42:14;;;;;;;5.70;4.60;;;;;;;9.27;89.71;101054.78;5050117;28;20033;-75
2021/09/23 05:44:40;;;;;;;6.30;5.00;;;;;;;9.27;90.11;101054.78;5050457;28;20074;-75
2021/09/23 05:47:05;;;;;;;6.70;5.07;;;;;;;9.26;90.52;101053.97;5050849;28;20120;-75
2021/09/23 05:49:30;;;;;;;7.20;5.40;;;;;;;9.25;90.65;101043.56;5050851;28;20506;-75
2021/09/23 05:51:56;;;;;;;6.10;4.97;;;;;;;9.26;91.34;101046.03;5048080;28;20025;-75
2021/09/23 05:54:25;;;;;;;5.35;4.40;;;;;;;9.31;90.17;101048.28;5051117;28;20058;-75
2021/09/23 05:56:50;;;;;;;5.47;4.30;;;;;;;9.35;91.19;101052.34;5050605;28;20029;-75
2021/09/23 05:59:16;;;;;;;5.53;3.72;;;;;;;9.63;91.30;101045.53;5056423;28;20040;-75
2021/09/23 06:01:42;;;;;;;4.15;3.35;;;;;;;10.19;89.08;101047.63;5051136;28;20123;-75
2021/09/23 06:04:07;;;;;;;4.38;3.08;;;;;;;10.86;87.83;101055.75;5049700;28;20183;-76
2021/09/23 06:06:32;;;;;;;4.28;3.40;;;;;;;11.49;88.62;101055.22;5050260;28;20041;-75
2021/09/23 06:08:59;;;;;;;4.40;2.78;;;;;;;12.01;83.83;101060.88;5050490;28;20044;-76
2021/09/23 06:11:25;;;;;;;4.28;2.63;;;;;;;12.47;80.95;101059.03;5049704;28;20032;-76
2021/09/23 06:13:50;;;;;;;3.92;2.38;;;;;;;12.98;77.86;101042.56;5049584;28;20041;-76
2021/09/23 06:16:15;;;;;;;3.60;2.60;;;;;;;13.44;79.52;101043.19;5049223;28;20064;-76
2021/09/23 06:18:41;;;;;;;3.45;2.45;;;;;;;13.91;83.90;101040.09;5050116;28;20041;-76
2021/09/23 06:21:07;;;;;;;2.88;1.92;;;;;;;14.28;76.55;101033.53;5049520;28;20398;-76
2021/09/23 06:23:34;;;;;;;3.80;2.50;;;;;;;14.80;80.26;101035.94;5050116;28;20041;-75
2021/09/23 06:25:59;;;;;;;5.72;3.47;;;;;;;15.34;77.08;101040.72;5051655;28;20133;-74
2021/09/23 06:28:25;;;;;;;3.80;2.78;;;;;;;15.38;75.17;101050.84;5048948;28;20513;-73
2021/09/23 06:30:50;;;;;;;5.72;3.28;;;;;;;15.50;67.97;101046.00;5048714;28;20374;-74
2021/09/23 06:33:15;;;;;;;3.88;2.58;;;;;;;15.68;71.91;101062.59;5050075;28;20052;-76
2021/09/23 06:35:41;;;;;;;6.28;3.03;;;;;;;15.69;69.93;101066.09;5049409;28;20374;-76
2021/09/23 06:38:06;;;;;;;5.32;3.00;;;;;;;15.97;74.85;101076.34;5049530;28;20037;-73
2021/09/23 06:40:31;;;;;;;4.93;2.70;;;;;;;16.11;70.62;101071.13;5047540;28;20469;-74
2021/09/23 06:42:57;;;;;;;4.25;2.90;;;;;;;16.30;71.26;101075.19;5053204;28;20047;-73
2021/09/23 06:45:23;;;;;;;4.60;3.30;;;;;;;16.38;72.42;101063.63;5051516;28;20039;-74
2021/09/23 06:47:48;;;;;;;4.67;3.00;;;;;;;16.23;70.19;101065.38;5051448;28;20408;-74
2021/09/23 06:50:14;;;;;;;4.80;2.97;;;;;;;15.87;69.82;101063.22;5047528;28;20077;-73
2021/09/23 06:52:40;;;;;;;3.92;2.90;;;;;;;15.48;70.92;101069.31;5049317;28;20409;-74
2021/09/23 06:55:06;;;;;;;4.65;3.10;;;;;;;15.10;69.67;101063.72;5057038;28;20033;-76
2021/09/23 06:57:31;;;;;;;3.87;2.67;;;;;;;14.80;69.63;101063.41;5051752;28;20029;-76
2021/09/23 06:59:57;;;;;;;3.83;2.92;;;;;;;14.56;68.79;101071.38;5050909;28;20043;-76
2021/09/23 07:02:22;;;;;;;3.83;2.70;;;;;;;14.39;70.20;101076.63;5048614;28;20040;-75
2021/09/23 07:04:47;;;;;;;3.13;2.40;;;;;;;14.41;70.68;101068.50;5049521;28;20322;-76
2021/09/23 07:07:12;;;;;;;4.40;2.50;;;;;;;14.72;70.08;101075.88;5049682;28;20036;-76
2021/09/23 07:09:38;;;;;;;4.22;2.38;;;;;;;15.01;69.91;101075.38;5049313;28;20057;-73
2021/09/23 07:12:03;;;;;;;4.68;2.97;;;;;;;15.73;68.97;101082.59;5048714;28;20032;-74
2021/09/23 07:14:29;;;;;;;3.72;2.20;;;;;;;16.23;69.14;101086.72;5047674;28;20374;-74
2021/09/23 07:16:54;;;;;;;4.22;2.20;;;;;;;16.91;67.88;101090.47;5049474;28;20084;-73
2021/09/23 07:19:20;;;;;;;4.78;2.58;;;;;;;17.58;64.29;101090.47;5048810;28;20033;-73
2021/09/23 07:21:45;;;;;;;4.03;2.60;;;;;;;18.00;64.24;101094.38;5049061;28;20439;-74
2021/09/23 07:24:11;;;;;;;4.68;2.17;;;;;;;18.48;64.08;101093.06;5048697;28;20035;-73
2021/09/23 07:26:37;;;;;;;4.75;2.80;;;;;;;18.87;61.76;101090.78;5049190;28;20037;-73
2021/09/23 07:29:03;;;;;;;3.58;2.47;;;;;;;18.96;63.03;101088.00;5048940;28;20040;-74
2021/09/23 07:31:28;;;;;;;4.28;2.45;;;;;;;19.36;59.47;101081.09;5052524;28;20036;-74
2021/09/23 07:33:53;;;;;;;5.78;3.80;;;;;;;20.00;60.52;101089.91;5050056;28;20056;-74
2021/09/23 07:36:19;;;;;;;5.45;3.20;;;;;;;20.34;59.74;101103.25;5054107;28;20032;-74
2021/09/23 07:38:45;;;;;;;4.50;2.63;;;;;;;20.95;59.60;101097.00;5057154;28;20033;-74
2021/09/23 07:41:11;;;;;;;4.18;2.63;;;;;;;21.30;50.45;101088.69;5048846;28;20374;-74
2021/09/23 07:43:37;;;;;;;3.75;2.53;;;;;;;21.71;54.28;101097.53;5049439;28;20182;-74
2021/09/23 07:46:02;;;;;;;4.28;2.90;;;;;;;22.08;51.56;101087.06;5048662;28;20047;-74
2021/09/23 07:48:28;;;;;;;5.85;3.63;;;;;;;22.21;50.97;101087.84;5049060;28;20086;-74
2021/09/23 07:50:54;;;;;;;4.97;3.25;;;;;;;22.85;52.28;101077.06;5050508;28;20112;-74
2021/09/23 07:53:19;;;;;;;5.85;3.60;;;;;;;23.26;48.82;101064.91;5049295;28;20059;-74
2021/09/23 07:55:45;;;;;;;9.00;4.30;;;;;;;23.01;48.94;101068.47;5054369;28;20089;-74
2021/09/23 07:58:10;;;;;;;7.25;4.00;;;;;;;23.24;49.25;101067.00;5048789;28;20032;-74
2021/09/23 08:00:36;;;;;;;6.97;3.95;;;;;;;23.59;47.68;101075.34;5049343;28;20098;-74
2021/09/23 08:03:01;;;;;;;5.38;3.63;;;;;;;24.00;45.58;101081.97;5048364;28;20412;-74
2021/09/23 08:05:30;;;;;;;3.95;2.67;;;;;;;23.58;45.92;101084.53;5054170;28;20028;-74
2021/09/23 08:07:57;;;;;;;4.38;2.60;;;;;;;24.23;48.40;101089.34;5048564;28;20033;-74
2021/09/23 08:10:22;;;;;;;6.38;4.40;;;;;;;24.94;43.70;101084.19;5044193;28;20037;-74
2021/09/23 08:12:48;;;;;;;4.90;3.22;;;;;;;24.68;46.26;101088.94;5037341;28;20406;-74
2021/09/23 08:15:13;;;;;;;6.47;4.53;;;;;;;25.20;43.26;101096.47;5050747;28;20144;-74
2021/09/23 08:17:39;;;;;;;4.25;2.90;;;;;;;25.10;42.17;101091.59;5050739;28;20039;-74
2021/09/23 08:20:05;;;;;;;8.43;3.80;;;;;;;25.28;44.26;101079.03;5049163;28;20160;-74
2021/09/23 08:22:31;;;;;;;6.05;3.88;;;;;;;25.70;41.06;101068.06;5049587;28;20041;-74
2021/09/23 08:24:56;;;;;;;5.95;4.03;;;;;;;26.10;40.26;101064.50;5049818;28;20036;-74
2021/09/23 08:27:21;;;;;;;6.20;4.05;;;;;;;26.02;39.14;101063.84;5052406;28;20386;-75
2021/09/23 08:29:47;;;;;;;6.40;4.80;;;;;;;26.37;39.53;101067.47;5046747;28;20041;-75
2021/09/23 08:32:17;;;;;;;5.60;3.50;;;;;;;26.05;41.31;101066.09;5046269;28;20029;-74
2021/09/23 08:34:42;;;;;;;4.93;3.70;;;;;;;26.32;40.83;101065.50;5047125;28;20664;-74
2021/09/23 08:37:08;;;;;;;5.78;3.55;;;;;;;26.67;40.36;101061.75;5047136;28;20036;-74
2021/09/23 08:39:33;;;;;;;5.80;3.70;;;;;;;26.06;40.40;101053.34;5045904;28;20044;-75
2021/09/23 08:41:58;;;;;;;4.72;3.20;;;;;;;26.79;41.29;101045.41;5046136;28;20112;-74
2021/09/23 08:44:24;;;;;;;4.38;2.72;;;;;;;26.89;37.08;101038.25;5054608;28;20045;-74
2021/09/23 08:46:49;;;;;;;3.90;2.85;;;;;;;27.92;38.25;101039.66;5064785;28;20033;-74
2021/09/23 08:49:14;;;;;;;6.77;4.20;;;;;;;28.37;35.25;101046.66;5052838;28;20036;-74
2021/09/23 08:51:40;;;;;;;3.83;3.13;;;;;;;26.85;37.08;101023.53;5050740;28;20040;-74
2021/09/23 08:54:06;;;;;;;6.03;3.15;;;;;;;27.86;37.06;101017.03;5050633;28;20362;-74
2021/09/23 08:56:33;;;;;;;4.35;3.33;;;;;;;28.22;35.58;101019.28;5051580;28;20324;-75
2021/09/23 08:58:58;;;;;;;5.13;2.85;;;;;;;28.14;36.17;101015.16;5051610;28;20060;-74
2021/09/23 09:01:29;;;;;;;5.40;3.22;;;;;;;28.70;32.61;101012.09;5050258;28;20064;-74
2021/09/23 09:04:02;;;;;;;;;;;;;;;28.92;33.18;100998.41;5052220;28;20123;-74
2021/09/23 09:06:28;;;;;;;5.18;2.92;;;;;;;28.79;34.47;101005.94;5030461;28;19917;-74
2021/09/23 09:08:53;;;;;;;4.47;3.00;;;;;;;29.09;32.37;101000.97;5028547;28;20231;-74
2021/09/23 09:11:19;;;;;;;4.20;2.80;;;;;;;28.54;32.85;101005.75;5031685;28;20514;-74
2021/09/23 09:13:46;;;;;;;5.35;2.35;;;;;;;28.73;33.13;101004.25;5044478;28;20047;-74
2021/09/23 09:16:30;;;;;;;3.92;2.45;;;;;;;28.84;32.46;101002.44;5050413;28;20033;-74
2021/09/23 09:18:58;;;;;;;3.33;2.20;;;;;;;28.63;32.16;101006.06;5050934;28;20418;-75
2021/09/23 09:21:28;;;;;;;5.15;2.40;;;;;;;27.55;34.51;101002.25;5051837;28;20088;-74
2021/09/23 09:23:59;;;;;;;5.13;2.40;;;;;;;28.38;32.98;101002.84;5051392;28;20033;-74
2021/09/23 09:26:32;;;;;;;;;;;;;;;27.79;33.53;100986.47;5050509;28;20075;-74
2021/09/23 09:29:01;;;;;;;4.25;2.80;;;;;;;27.41;33.27;100987.41;5049655;28;19921;-75
2021/09/23 09:31:27;;;;;;;3.78;1.90;;;;;;;26.05;37.82;100978.50;5050206;28;20116;-74
2021/09/23 09:33:56;;;;;;;4.38;2.25;;;;;;;26.37;37.41;100980.72;5052136;28;20033;-74
2021/09/23 09:36:42;;;;;;;3.42;2.15;;;;;;;26.19;36.10;100973.63;5050577;28;20069;-75
2021/09/23 09:39:13;;;;;;;3.63;2.10;;;;;;;25.54;36.90;100966.69;5050268;28;20566;-74
2021/09/23 09:41:46;;;;;;;2.90;2.00;;;;;;;24.33;39.76;100962.59;5051124;28;20041;-74
2021/09/23 09:44:13;;;;;;;4.68;2.47;;;;;;;24.44;39.55;100965.56;5050426;28;20025;-74
2021/09/23 09:46:52;;;;;;;8.60;2.70;;;;;;;24.29;39.41;100960.63;5049249;28;20079;-74
2021/09/23 09:49:21;;;;;;;4.70;2.30;;;;;;;23.77;40.26;100963.03;5051324;28;20523;-74
2021/09/23 09:52:00;;;;;;;3.85;1.70;;;;;;;23.03;43.13;100969.28;5051510;28;20039;-74
2021/09/23 09:54:25;;;;;;;4.20;2.13;;;;;;;22.33;43.99;100965.91;5049962;28;20417;-74
2021/09/23 09:56:59;;;;;;;4.18;2.20;;;;;;;22.61;42.87;100960.91;5050448;28;20033;-74
2021/09/23 09:59:24;;;;;;;4.70;2.22;;;;;;;22.61;43.61;100979.78;5046526;28;20388;-74
2021/09/23 10:01:52;;;;;;;5.57;2.50;;;;;;;21.79;44.82;100976.19;5050678;28;20037;-74
2021/09/23 10:04:20;;;;;;;4.18;2.20;;;;;;;21.71;45.23;100971.84;5050236;28;20037;-73
2021/09/23 10:06:46;;;;;;;3.03;1.83;;;;;;;21.25;46.86;100967.47;5049916;28;20393;-74
2021/09/23 10:09:14;;;;;;;5.90;2.88;;;;;;;21.68;45.23;100972.28;5049076;28;20041;-76
2021/09/23 10:11:45;;;;;;;5.38;2.00;;;;;;;21.63;45.81;100959.47;5056109;28;20025;-74
2021/09/23 10:14:12;;;;;;;4.57;2.60;;;;;;;21.84;45.26;100969.09;5049375;28;20029;-74
2021/09/23 10:16:38;;;;;;;4.88;2.67;;;;;;;21.79;45.36;100957.34;5049663;28;20044;-75
2021/09/23 10:19:04;;;;;;;5.00;2.50;;;;;;;21.68;45.75;100955.31;5042024;28;20071;-74
2021/09/23 10:21:30;;;;;;;4.38;2.80;;;;;;;21.29;46.83;100957.13;5050934;28;20375;-74
2021/09/23 10:23:56;;;;;;;5.03;2.65;;;;;;;21.20;47.11;100953.81;5050781;28;20083;-75
2021/09/23 10:26:25;;;;;;;4.10;2.80;;;;;;;21.17;47.23;100943.50;5051941;28;20069;-75
2021/09/23 10:28:53;;;;;;;3.67;2.67;;;;;;;21.10;47.69;100937.31;5050750;28;20060;-74
2021/09/23 10:31:21;;;;;;;6.80;3.10;;;;;;;21.04;48.02;100930.06;5047962;28;20103;-74
2021/09/23 10:33:48;;;;;;;5.00;2.70;;;;;;;20.92;48.42;100925.34;5049372;28;20029;-74
2021/09/23 10:36:19;;;;;;;5.22;3.05;;;;;;;20.96;48.89;100917.69;5048877;28;20421;-75
2021/09/23 10:38:44;;;;;;;3.87;2.73;;;;;;;21.10;48.50;100923.88;5055040;28;20123;-74
2021/09/23 10:41:13;;;;;;;5.82;3.08;;;;;;;20.96;49.01;100913.13;5050961;28;20315;-74
2021/09/23 10:43:41;;;;;;;6.00;3.05;;;;;;;21.05;48.77;100911.06;5052043;28;20037;-75
2021/09/23 10:46:09;;;;;;;7.13;3.00;;;;;;;20.97;48.32;100909.44;5049473;28;20509;-75
2021/09/23 10:48:36;;;;;;;5.55;3.10;;;;;;;20.86;48.85;100914.63;5051301;28;20476;-76
2021/09/23 10:51:03;;;;;;;3.47;2.55;;;;;;;20.69;51.30;100908.84;5050633;28;20037;-74
2021/09/23 10:53:31;;;;;;;4.18;2.60;;;;;;;20.81;49.33;100893.75;5050998;28;20025;-74
2021/09/23 10:56:19;;;;;;;4.95;2.75;;;;;;;20.92;48.97;100890.38;5052109;28;20033;-75
2021/09/23 10:58:47;;;;;;;5.00;2.53;;;;;;;21.06;48.12;100893.06;5052413;28;20033;-75
2021/09/23 11:01:30;;;;;;;4.47;2.60;;;;;;;21.07;47.48;100886.63;5044628;28;20094;-75
2021/09/23 11:03:59;;;;;;;4.15;2.58;;;;;;;21.21;47.27;100890.91;5049474;28;20120;-74
2021/09/23 11:06:35;;;;;;;3.45;2.42;;;;;;;21.16;47.65;100883.47;5049014;28;20037;-74
2021/09/23 11:09:21;;;;;;;6.78;2.78;;;;;;;21.18;47.38;100877.91;5050254;28;20025;-74
2021/09/23 11:11:48;;;;;;;4.82;2.60;;;;;;;21.13;47.05;100872.34;5050445;28;20124;-74
2021/09/23 11:14:15;;;;;;;4.13;2.70;;;;;;;20.90;47.87;100870.13;5048613;28;20029;-75
2021/09/23 11:16:47;;;;;;;5.80;2.72;;;;;;;21.11;47.54;100879.78;5047439;28;20111;-74
2021/09/23 11:19:13;;;;;;;;;;;;;;;21.05;47.90;100864.53;5046555;28;20036;-75
2021/09/23 11:21:38;;;;;;;3.75;2.50;;;;;;;20.98;48.52;100851.09;5047195;28;20007;-74
2021/09/23 11:24:04;;;;;;;4.43;2.90;;;;;;;21.00;48.19;100859.78;5048350;28;20120;-74